Time;durP1;ratioP1;P1;durP2;ratioP2;P2;SDS_P1;SDS_P2;PMS_P1;PMS_P2;Temp;Humidity;BMP_temperature;BMP_pressure;BME280_temperature;BME280_humidity;BME280_pressure;Samples;Min_cycle;Max_cycle;Signal;HPM_P1;HPM_P2
2023/04/17 00:00:39;;;;;;;14.27;7.45;;;10.20;99.90;;;;;;5057332;28;20045;-87
2023/04/17 00:03:04;;;;;;;17.48;9.13;;;8.40;99.90;;;;;;5057809;28;20102;-85
2023/04/17 00:05:30;;;;;;;19.52;8.43;;;8.40;99.90;;;;;;5058024;28;20056;-85
2023/04/17 00:07:58;;;;;;;25.98;9.93;;;9.50;99.90;;;;;;5058187;28;20064;-86
2023/04/17 00:10:24;;;;;;;18.17;8.60;;;8.40;99.90;;;;;;5057789;28;20095;-87
2023/04/17 00:12:50;;;;;;;29.23;9.98;;;8.40;99.90;;;;;;5058311;28;20037;-87
2023/04/17 00:15:16;;;;;;;22.05;9.18;;;8.40;99.90;;;;;;5057581;28;20037;-86
2023/04/17 00:17:41;;;;;;;18.88;9.43;;;8.40;99.90;;;;;;5040402;28;20472;-86
2023/04/17 00:20:10;;;;;;;20.40;9.20;;;8.40;99.90;;;;;;5042240;28;20155;-87
2023/04/17 00:22:39;;;;;;;17.00;8.52;;;8.40;99.90;;;;;;5058235;28;20089;-86
2023/04/17 00:25:05;;;;;;;26.17;9.45;;;8.40;99.90;;;;;;5041436;28;20084;-86
2023/04/17 00:27:31;;;;;;;23.63;9.13;;;8.50;99.90;;;;;;5042377;28;20040;-86
2023/04/17 00:29:56;;;;;;;21.98;9.13;;;8.40;99.90;;;;;;5041113;28;20048;-83
2023/04/17 00:32:22;;;;;;;20.60;8.82;;;8.50;99.90;;;;;;5057561;28;20435;-85
2023/04/17 00:34:49;;;;;;;26.90;9.77;;;8.40;99.90;;;;;;5057101;28;20115;-86
2023/04/17 00:37:15;;;;;;;25.92;9.90;;;8.50;99.90;;;;;;5058731;28;20500;-86
2023/04/17 00:39:40;;;;;;;21.77;9.00;;;8.50;99.90;;;;;;5057102;28;20062;-85
2023/04/17 00:42:06;;;;;;;19.00;9.32;;;8.50;99.90;;;;;;5057944;28;20131;-87
2023/04/17 00:44:31;;;;;;;19.00;7.85;;;8.50;99.90;;;;;;5057133;28;20040;-86
2023/04/17 00:46:57;;;;;;;19.42;9.00;;;8.50;99.90;;;;;;5057611;28;20564;-85
2023/04/17 00:49:23;;;;;;;18.88;9.50;;;8.50;99.90;;;;;;5057724;28;20071;-86
2023/04/17 00:51:49;;;;;;;20.02;9.25;;;8.50;99.90;;;;;;5057803;28;20040;-87
2023/04/17 00:54:15;;;;;;;25.08;8.50;;;9.40;99.90;;;;;;5041357;28;20098;-87
2023/04/17 00:56:42;;;;;;;18.70;9.43;;;8.50;99.90;;;;;;5057758;28;20123;-87
2023/04/17 00:59:11;;;;;;;22.80;9.18;;;8.50;99.90;;;;;;5056776;28;20404;-86
2023/04/17 01:01:37;;;;;;;26.52;9.82;;;9.90;99.90;;;;;;5056901;28;20041;-86
2023/04/17 01:04:04;;;;;;;22.70;9.48;;;8.50;99.90;;;;;;5058579;28;20495;-86
2023/04/17 01:06:30;;;;;;;26.00;10.13;;;8.50;99.90;;;;;;5060409;28;20053;-87
2023/04/17 01:08:56;;;;;;;21.65;10.25;;;8.50;99.90;;;;;;5044041;28;20051;-86
2023/04/17 01:11:22;;;;;;;26.48;10.55;;;9.80;99.90;;;;;;5059867;28;20051;-88
2023/04/17 01:13:49;;;;;;;20.02;9.10;;;8.50;99.90;;;;;;5060436;28;20364;-86
2023/04/17 01:16:17;;;;;;;19.15;9.02;;;8.50;99.90;;;;;;5043247;28;20127;-86
2023/04/17 01:18:42;;;;;;;20.38;8.77;;;8.50;99.90;;;;;;5060413;28;20044;-87
2023/04/17 01:21:08;;;;;;;21.55;9.02;;;8.50;99.90;;;;;;5060701;28;20043;-87
2023/04/17 01:23:44;;;;;;;20.70;8.55;;;8.50;99.90;;;;;;5060518;28;20052;-87
2023/04/17 01:26:18;;;;;;;22.95;9.10;;;8.50;99.90;;;;;;5061477;28;20146;-87
2023/04/17 01:28:52;;;;;;;15.98;8.43;;;8.50;99.90;;;;;;5060889;28;20051;-86
2023/04/17 01:31:18;;;;;;;19.52;9.13;;;8.50;99.90;;;;;;5061238;28;20446;-87
2023/04/17 01:33:44;;;;;;;19.92;8.70;;;8.50;99.90;;;;;;5060973;28;20052;-86
2023/04/17 01:36:10;;;;;;;19.63;8.95;;;8.50;99.90;;;;;;5061283;28;20036;-86
2023/04/17 01:38:35;;;;;;;23.95;9.98;;;8.50;99.90;;;;;;5060650;28;20089;-86
2023/04/17 01:41:08;;;;;;;22.77;9.70;;;8.50;99.90;;;;;;5061536;28;20044;-87
2023/04/17 01:43:52;;;;;;;20.77;9.30;;;8.50;99.90;;;;;;5061410;28;20089;-86
2023/04/17 01:46:17;;;;;;;25.95;9.10;;;8.50;99.90;;;;;;5044357;28;20045;-86
2023/04/17 01:48:43;;;;;;;23.38;8.77;;;10.10;99.90;;;;;;5061039;28;20043;-88
2023/04/17 01:51:08;;;;;;;24.33;10.20;;;8.50;99.90;;;;;;5059549;28;20045;-86
2023/04/17 01:53:35;;;;;;;24.80;9.85;;;8.50;99.90;;;;;;5059464;28;20052;-85
2023/04/17 01:56:01;;;;;;;27.33;10.23;;;8.50;99.90;;;;;;5060472;28;20075;-86
2023/04/17 01:58:26;;;;;;;22.40;10.15;;;8.50;99.90;;;;;;5042044;28;20492;-85
2023/04/17 02:00:52;;;;;;;21.83;8.98;;;8.50;99.90;;;;;;5058604;28;20042;-86
2023/04/17 02:03:18;;;;;;;27.75;9.77;;;8.50;99.90;;;;;;5062363;23;20621;-86
2023/04/17 02:05:46;;;;;;;20.23;8.95;;;8.50;99.90;;;;;;5040647;28;20408;-84
2023/04/17 02:08:13;;;;;;;23.75;9.75;;;8.50;99.90;;;;;;5040680;28;20131;-86
2023/04/17 02:10:40;;;;;;;20.70;9.95;;;8.50;99.90;;;;;;5056610;28;20055;-86
2023/04/17 02:13:06;;;;;;;21.17;8.77;;;8.50;99.90;;;;;;5056633;28;20041;-86
2023/04/17 02:15:31;;;;;;;25.90;10.82;;;9.10;99.90;;;;;;5055435;28;20399;-86
2023/04/17 02:17:57;;;;;;;27.58;10.73;;;8.50;99.90;;;;;;5056491;28;20045;-85
2023/04/17 02:20:23;;;;;;;24.50;10.60;;;8.50;99.90;;;;;;5056982;28;20041;-87
2023/04/17 02:22:48;;;;;;;23.88;10.23;;;8.40;99.90;;;;;;5040426;28;20484;-87
2023/04/17 02:25:14;;;;;;;22.10;9.95;;;8.40;99.90;;;;;;5056072;28;20048;-86
2023/04/17 02:27:40;;;;;;;21.30;9.77;;;10.10;99.90;;;;;;5056248;28;20488;-87
2023/04/17 02:30:07;;;;;;;22.17;11.05;;;8.50;99.90;;;;;;5055445;28;20048;-86
2023/04/17 02:32:33;;;;;;;17.20;8.73;;;8.50;99.90;;;;;;5055380;28;20060;-87
2023/04/17 02:34:58;;;;;;;27.23;11.38;;;8.50;99.90;;;;;;5055101;28;20033;-86
2023/04/17 02:37:24;;;;;;;29.00;10.65;;;8.50;99.90;;;;;;5055109;28;20029;-87
2023/04/17 02:39:50;;;;;;;25.23;11.20;;;9.50;99.90;;;;;;5054779;28;20134;-86
2023/04/17 02:42:16;;;;;;;26.65;10.43;;;8.40;99.90;;;;;;5038970;28;20055;-87
2023/04/17 02:44:41;;;;;;;21.17;10.68;;;8.50;99.90;;;;;;5056078;28;20037;-88
2023/04/17 02:47:07;;;;;;;22.25;10.07;;;8.50;99.90;;;;;;5056028;28;20090;-87
2023/04/17 02:49:33;;;;;;;26.60;10.35;;;8.40;99.90;;;;;;5056879;28;20037;-87
2023/04/17 02:51:59;;;;;;;31.13;10.35;;;8.40;99.90;;;;;;5039229;28;20071;-87
2023/04/17 02:54:25;;;;;;;27.73;9.88;;;8.40;99.90;;;;;;5039362;28;20554;-87
2023/04/17 02:56:51;;;;;;;27.95;9.85;;;8.40;99.90;;;;;;5038969;28;20045;-87
2023/04/17 02:59:17;;;;;;;25.63;10.18;;;8.40;99.90;;;;;;5055430;28;20045;-87
2023/04/17 03:01:44;;;;;;;27.25;10.50;;;8.30;99.90;;;;;;5039182;28;20552;-87
2023/04/17 03:04:10;;;;;;;25.20;9.45;;;8.40;99.90;;;;;;5038587;28;20048;-87
2023/04/17 03:06:36;;;;;;;30.77;11.48;;;8.30;99.90;;;;;;5054806;28;20044;-88
2023/04/17 03:09:03;;;;;;;39.65;11.10;;;8.40;99.90;;;;;;5037812;28;20041;-87
2023/04/17 03:11:29;;;;;;;24.83;10.80;;;8.40;99.90;;;;;;5036382;28;20041;-87
2023/04/17 03:13:55;;;;;;;22.45;9.60;;;8.30;99.90;;;;;;5037875;28;20039;-86
2023/04/17 03:16:20;;;;;;;26.35;9.77;;;9.30;99.90;;;;;;5053624;28;20531;-84
2023/04/17 03:18:46;;;;;;;24.65;9.05;;;8.30;99.90;;;;;;5038554;28;20045;-86
2023/04/17 03:21:11;;;;;;;19.05;7.90;;;8.30;99.90;;;;;;5038478;28;20374;-85
2023/04/17 03:23:37;;;;;;;19.08;9.27;;;8.30;99.90;;;;;;5054725;28;20041;-85
2023/04/17 03:26:02;;;;;;;19.85;8.55;;;8.40;99.90;;;;;;5054436;28;20067;-87
2023/04/17 03:28:28;;;;;;;25.50;10.25;;;9.40;99.90;;;;;;5054240;28;20033;-86
2023/04/17 03:30:56;;;;;;;23.73;10.13;;;10.50;99.90;;;;;;5054731;28;20044;-86
2023/04/17 03:33:22;;;;;;;21.95;9.07;;;8.30;99.90;;;;;;5054854;28;20048;-86
2023/04/17 03:35:48;;;;;;;24.58;9.23;;;8.40;99.90;;;;;;5038784;28;20032;-86
2023/04/17 03:38:13;;;;;;;22.40;9.02;;;8.30;99.90;;;;;;5038642;28;20091;-87
2023/04/17 03:40:39;;;;;;;18.25;9.32;;;8.30;99.90;;;;;;5038331;28;20041;-87
2023/04/17 03:43:05;;;;;;;19.25;7.43;;;8.30;99.90;;;;;;5038611;28;20088;-86
2023/04/17 03:45:31;;;;;;;28.25;9.55;;;8.90;99.90;;;;;;5036892;28;20079;-85
2023/04/17 03:47:56;;;;;;;24.42;8.68;;;8.30;99.90;;;;;;5054287;28;20041;-86
2023/04/17 03:50:22;;;;;;;23.90;9.07;;;8.30;99.90;;;;;;5036271;28;20497;-86
2023/04/17 03:52:47;;;;;;;18.40;6.88;;;8.30;99.90;;;;;;5054945;28;20033;-86
2023/04/17 03:55:13;;;;;;;24.05;9.38;;;8.30;99.90;;;;;;5037863;28;20045;-86
2023/04/17 03:57:39;;;;;;;22.13;8.15;;;9.50;99.90;;;;;;5054654;28;20383;-86
2023/04/17 04:00:09;;;;;;;21.40;8.55;;;8.20;99.90;;;;;;5037577;28;20037;-86
2023/04/17 04:02:37;;;;;;;20.75;9.50;;;8.30;99.90;;;;;;5054113;28;20146;-87
2023/04/17 04:05:03;;;;;;;27.92;9.77;;;8.20;99.90;;;;;;5055307;28;20088;-87
2023/04/17 04:07:28;;;;;;;19.42;8.32;;;8.20;99.90;;;;;;5054243;28;20044;-86
2023/04/17 04:09:54;;;;;;;16.30;7.97;;;8.20;99.90;;;;;;5054545;28;20465;-86
2023/04/17 04:12:21;;;;;;;23.50;9.48;;;8.20;99.90;;;;;;5053998;28;20033;-84
2023/04/17 04:14:47;;;;;;;30.25;9.70;;;8.20;99.90;;;;;;5038124;28;20033;-87
2023/04/17 04:17:13;;;;;;;26.23;9.57;;;8.60;99.90;;;;;;5038234;28;20051;-86
2023/04/17 04:19:39;;;;;;;19.23;9.65;;;8.50;99.90;;;;;;5038091;28;20032;-86
2023/04/17 04:22:05;;;;;;;17.25;7.82;;;8.10;99.90;;;;;;5053596;28;20037;-85
2023/04/17 04:24:30;;;;;;;27.58;8.63;;;8.10;99.90;;;;;;5055108;28;20094;-87
2023/04/17 04:27:04;;;;;;;21.85;8.30;;;8.10;99.90;;;;;;5055165;28;20136;-87
2023/04/17 04:29:30;;;;;;;20.33;8.27;;;8.20;99.90;;;;;;5037363;28;20080;-85
2023/04/17 04:31:56;;;;;;;19.35;8.27;;;8.10;99.90;;;;;;5055230;28;20041;-87
2023/04/17 04:34:24;;;;;;;22.17;9.48;;;8.10;99.90;;;;;;5041073;28;20086;-87
2023/04/17 04:36:50;;;;;;;20.23;7.93;;;8.10;99.90;;;;;;5040019;28;20036;-87
2023/04/17 04:39:19;;;;;;;19.02;7.45;;;8.00;99.90;;;;;;5056968;28;20123;-87
2023/04/17 04:41:54;;;;;;;20.63;8.38;;;8.00;99.90;;;;;;5060998;28;20055;-87
2023/04/17 04:44:20;;;;;;;19.70;7.20;;;8.00;99.90;;;;;;5059935;28;20451;-87
2023/04/17 04:46:46;;;;;;;20.63;8.82;;;8.60;99.90;;;;;;5060731;28;20058;-87
2023/04/17 04:49:12;;;;;;;19.00;7.75;;;8.00;99.90;;;;;;5059575;28;20445;-87
2023/04/17 04:51:38;;;;;;;18.05;7.20;;;9.30;99.90;;;;;;5060780;28;20073;-88
2023/04/17 04:54:05;;;;;;;18.63;8.80;;;8.00;99.90;;;;;;5060095;28;20400;-88
2023/04/17 04:56:31;;;;;;;19.83;7.95;;;7.90;99.90;;;;;;5058278;28;20377;-88
2023/04/17 04:58:56;;;;;;;13.63;7.43;;;7.90;99.90;;;;;;5042856;28;20044;-87
2023/04/17 05:01:22;;;;;;;18.63;7.88;;;7.90;99.90;;;;;;5058945;28;20041;-86
2023/04/17 05:03:47;;;;;;;22.65;7.43;;;7.90;99.90;;;;;;5058388;28;20057;-86
2023/04/17 05:06:13;;;;;;;16.45;7.82;;;7.90;99.90;;;;;;5058206;28;20043;-85
2023/04/17 05:08:40;;;;;;;18.40;7.82;;;9.00;99.90;;;;;;5044605;28;20041;-86
2023/04/17 05:11:05;;;;;;;13.43;6.45;;;7.70;99.90;;;;;;5043294;28;20131;-86
2023/04/17 05:13:31;;;;;;;16.95;7.82;;;7.80;99.90;;;;;;5041094;28;20448;-85
2023/04/17 05:15:57;;;;;;;15.13;7.18;;;7.80;99.90;;;;;;5042518;28;20111;-85
2023/04/17 05:18:23;;;;;;;13.52;6.30;;;9.40;99.90;;;;;;5057861;28;20128;-85
2023/04/17 05:20:50;;;;;;;12.75;6.90;;;7.80;99.90;;;;;;5059327;28;20033;-85
2023/04/17 05:23:16;;;;;;;14.43;6.40;;;7.80;99.90;;;;;;5058665;28;20052;-85
2023/04/17 05:25:41;;;;;;;11.70;6.65;;;9.20;99.90;;;;;;5060757;28;20067;-81
2023/04/17 05:28:07;;;;;;;13.25;6.60;;;7.80;99.90;;;;;;5040388;28;20041;-77
2023/04/17 05:30:34;;;;;;;19.13;7.13;;;7.80;99.90;;;;;;5056787;28;20033;-88
2023/04/17 05:33:00;;;;;;;15.63;6.30;;;7.90;99.90;;;;;;5039706;28;20037;-79
2023/04/17 05:35:26;;;;;;;16.90;7.75;;;7.80;99.90;;;;;;5039270;28;20135;-81
2023/04/17 05:37:52;;;;;;;14.18;6.80;;;8.60;99.90;;;;;;5039018;28;20037;-81
2023/04/17 05:40:18;;;;;;;17.30;7.70;;;8.60;99.90;;;;;;5039971;28;20040;-78
2023/04/17 05:42:44;;;;;;;12.07;6.45;;;7.80;99.90;;;;;;5039994;28;20048;-79
2023/04/17 05:45:14;;;;;;;18.20;7.65;;;7.80;99.90;;;;;;5039750;28;20039;-84
2023/04/17 05:47:40;;;;;;;16.67;7.60;;;8.40;99.90;;;;;;5041857;28;20045;-82
2023/04/17 05:50:07;;;;;;;19.10;7.70;;;7.90;99.90;;;;;;5057796;28;20080;-84
2023/04/17 05:52:33;;;;;;;20.17;7.85;;;7.90;99.90;;;;;;5038615;28;20091;-76
2023/04/17 05:54:58;;;;;;;15.55;7.07;;;7.90;99.90;;;;;;5055989;28;20036;-76
2023/04/17 05:57:24;;;;;;;15.75;7.60;;;8.00;99.90;;;;;;5038872;28;20037;-76
2023/04/17 05:59:50;;;;;;;18.75;8.27;;;8.00;99.90;;;;;;5053914;28;20048;-77
2023/04/17 06:02:16;;;;;;;17.48;7.65;;;8.00;99.90;;;;;;5037587;28;20041;-76
2023/04/17 06:04:42;;;;;;;16.75;7.22;;;8.00;99.90;;;;;;5037440;28;20492;-79
2023/04/17 06:07:09;;;;;;;16.98;7.43;;;8.10;99.90;;;;;;5021688;28;20033;-79
2023/04/17 06:09:35;;;;;;;19.73;7.70;;;8.10;99.90;;;;;;5040278;28;20183;-84
2023/04/17 06:12:02;;;;;;;16.23;7.35;;;8.10;99.90;;;;;;5024495;28;20041;-84
2023/04/17 06:14:28;;;;;;;21.00;7.95;;;8.90;99.90;;;;;;5024665;28;20041;-83
2023/04/17 06:16:53;;;;;;;17.38;8.18;;;8.10;99.90;;;;;;5023199;28;20468;-81
2023/04/17 06:19:19;;;;;;;16.23;8.90;;;8.20;99.90;;;;;;5036930;28;20033;-87
2023/04/17 06:21:45;;;;;;;19.58;8.48;;;8.20;99.90;;;;;;5021590;28;20041;-79
2023/04/17 06:24:10;;;;;;;17.67;8.02;;;8.20;99.90;;;;;;5020388;28;20067;-80
2023/04/17 06:26:36;;;;;;;17.27;7.93;;;8.30;99.90;;;;;;5036723;28;20048;-80
2023/04/17 06:29:02;;;;;;;16.35;8.27;;;8.40;99.90;;;;;;5036564;28;20390;-80
2023/04/17 06:31:28;;;;;;;22.27;9.35;;;8.40;99.90;;;;;;5036857;28;20555;-79
2023/04/17 06:33:53;;;;;;;21.42;9.00;;;8.40;99.90;;;;;;5036273;28;20040;-76
2023/04/17 06:36:19;;;;;;;18.98;8.65;;;10.20;99.90;;;;;;5019710;28;20033;-77
2023/04/17 06:38:45;;;;;;;21.42;8.27;;;8.50;99.90;;;;;;5036150;28;20028;-77
2023/04/17 06:41:11;;;;;;;17.50;8.70;;;8.50;99.90;;;;;;5036122;28;20056;-77
2023/04/17 06:43:36;;;;;;;16.70;8.27;;;8.60;99.90;;;;;;5036027;28;20052;-77
2023/04/17 06:46:02;;;;;;;19.95;8.82;;;10.40;99.90;;;;;;5036088;28;20053;-77
2023/04/17 06:48:28;;;;;;;17.77;8.98;;;8.60;99.90;;;;;;5019505;28;20052;-76
2023/04/17 06:50:53;;;;;;;21.20;8.70;;;8.90;99.90;;;;;;5019381;28;20101;-82
2023/04/17 06:53:20;;;;;;;19.73;9.10;;;8.70;99.90;;;;;;5020335;28;20041;-80
2023/04/17 06:55:46;;;;;;;19.25;9.20;;;8.70;99.90;;;;;;5036505;28;20044;-80
2023/04/17 06:58:12;;;;;;;17.88;8.82;;;8.80;99.90;;;;;;5036410;28;20428;-80
2023/04/17 07:00:38;;;;;;;21.95;9.93;;;9.80;99.90;;;;;;5036904;28;20102;-81
2023/04/17 07:03:04;;;;;;;20.77;9.38;;;8.90;99.90;;;;;;5024578;28;20061;-81
2023/04/17 07:05:30;;;;;;;17.52;9.15;;;9.00;99.90;;;;;;5052540;28;20049;-80
2023/04/17 07:07:56;;;;;;;23.35;9.45;;;9.10;99.90;;;;;;5053548;28;20044;-81
2023/04/17 07:10:21;;;;;;;23.35;10.13;;;9.90;99.90;;;;;;5020759;28;20041;-81
2023/04/17 07:12:47;;;;;;;20.73;9.68;;;9.20;99.90;;;;;;5036227;28;20488;-80
2023/04/17 07:15:13;;;;;;;21.52;9.82;;;9.30;99.90;;;;;;5035981;28;20070;-81
2023/04/17 07:17:38;;;;;;;23.20;9.80;;;9.50;99.90;;;;;;5052953;28;20044;-81
2023/04/17 07:20:06;;;;;;;16.70;8.77;;;9.60;99.90;;;;;;5036314;28;20051;-81
2023/04/17 07:22:33;;;;;;;20.77;8.75;;;9.70;99.90;;;;;;5035799;28;20048;-80
2023/04/17 07:24:59;;;;;;;18.95;9.45;;;9.80;99.90;;;;;;5035891;28;20047;-80
2023/04/17 07:27:25;;;;;;;18.58;9.50;;;11.40;99.90;;;;;;5052432;28;20044;-81
2023/04/17 07:29:53;;;;;;;21.38;9.13;;;10.00;99.90;;;;;;5052928;28;20132;-81
2023/04/17 07:32:20;;;;;;;20.05;9.95;;;11.70;99.90;;;;;;5053251;28;20041;-82
2023/04/17 07:34:47;;;;;;;21.08;8.88;;;10.00;99.90;;;;;;5051796;28;20067;-81
2023/04/17 07:37:14;;;;;;;19.60;9.57;;;10.10;99.90;;;;;;5052654;28;20123;-82
2023/04/17 07:39:40;;;;;;;19.13;9.15;;;10.30;99.90;;;;;;5052970;28;20102;-81
2023/04/17 07:42:07;;;;;;;18.20;9.02;;;10.40;99.90;;;;;;5052785;28;20455;-81
2023/04/17 07:44:33;;;;;;;15.80;8.80;;;12.80;99.90;;;;;;5036108;28;20076;-82
2023/04/17 07:47:00;;;;;;;23.08;9.73;;;10.60;99.90;;;;;;5053043;28;20119;-81
2023/04/17 07:49:26;;;;;;;19.58;10.40;;;10.60;99.90;;;;;;5053047;28;20087;-82
2023/04/17 07:51:52;;;;;;;20.30;8.93;;;13.20;99.90;;;;;;5036056;28;20048;-82
2023/04/17 07:54:17;;;;;;;19.00;9.45;;;10.70;99.90;;;;;;5053546;28;20119;-81
2023/04/17 07:56:45;;;;;;;18.27;9.48;;;10.40;99.90;;;;;;5052619;28;20065;-82
2023/04/17 07:59:11;;;;;;;18.02;8.60;;;12.90;99.90;;;;;;5052555;28;20036;-82
2023/04/17 08:01:37;;;;;;;19.50;9.60;;;12.10;99.90;;;;;;5052047;28;20079;-81
2023/04/17 08:04:03;;;;;;;15.80;9.50;;;11.10;99.90;;;;;;5052281;28;20053;-81
2023/04/17 08:06:28;;;;;;;17.33;9.38;;;11.10;99.90;;;;;;5035972;28;20517;-81
2023/04/17 08:08:54;;;;;;;20.55;9.85;;;11.20;99.90;;;;;;5036412;28;20539;-82
2023/04/17 08:11:20;;;;;;;17.60;9.38;;;11.10;99.20;;;;;;5051124;28;20171;-82
2023/04/17 08:13:45;;;;;;;13.75;8.85;;;11.20;97.30;;;;;;5035648;28;20045;-83
2023/04/17 08:16:11;;;;;;;16.45;9.90;;;11.20;97.70;;;;;;5056199;28;20077;-83
2023/04/17 08:18:38;;;;;;;18.02;10.00;;;11.30;94.80;;;;;;5055914;28;20060;-84
2023/04/17 08:21:04;;;;;;;15.82;8.80;;;11.40;95.40;;;;;;5040146;28;20041;-83
2023/04/17 08:23:29;;;;;;;15.32;8.77;;;11.40;93.80;;;;;;5039669;28;20037;-83
2023/04/17 08:25:58;;;;;;;17.98;8.88;;;11.50;93.30;;;;;;5057356;28;20087;-84
2023/04/17 08:28:24;;;;;;;16.40;8.63;;;12.50;94.10;;;;;;5038853;28;20032;-83
2023/04/17 08:30:50;;;;;;;14.23;8.50;;;13.50;92.80;;;;;;5056034;28;20033;-83
2023/04/17 08:33:17;;;;;;;15.07;9.60;;;11.80;92.50;;;;;;5056208;28;20048;-83
2023/04/17 08:35:43;;;;;;;16.70;8.10;;;11.90;79.70;;;;;;5039209;28;20037;-84
2023/04/17 08:38:13;;;;;;;17.02;8.82;;;12.00;76.70;;;;;;5055755;28;20408;-83
2023/04/17 08:40:45;;;;;;;15.02;8.07;;;12.70;73.40;;;;;;5055964;28;20480;-82
2023/04/17 08:43:16;;;;;;;16.55;8.88;;;12.30;58.80;;;;;;5038941;28;20068;-83
2023/04/17 08:45:52;;;;;;;19.30;8.82;;;12.20;53.40;;;;;;5038711;28;20040;-84
2023/04/17 08:48:19;;;;;;;16.20;8.98;;;12.20;43.00;;;;;;5038565;28;20330;-83
2023/04/17 08:50:47;;;;;;;17.08;9.85;;;12.20;44.20;;;;;;5038922;28;20064;-85
2023/04/17 08:53:13;;;;;;;16.88;10.07;;;14.30;44.70;;;;;;5039028;28;20552;-84
2023/04/17 08:55:39;;;;;;;19.05;9.65;;;14.40;40.10;;;;;;5039178;28;20133;-83
2023/04/17 08:58:05;;;;;;;13.90;8.52;;;14.10;41.80;;;;;;5056092;28;20466;-83
2023/04/17 09:00:36;;;;;;;16.15;8.70;;;12.60;15.40;;;;;;5055262;28;20044;-84
2023/04/17 09:03:02;;;;;;;;;;;12.60;9.50;;;;;;5055621;28;20429;-83
2023/04/17 09:05:32;;;;;;;15.07;7.93;;;12.60;2.80;;;;;;5055417;28;20558;-84
2023/04/17 09:08:15;;;;;;;12.80;8.18;;;12.80;2.70;;;;;;5055485;28;20037;-84
2023/04/17 09:10:46;;;;;;;13.68;7.60;;;12.70;1.00;;;;;;5055671;28;20451;-84
2023/04/17 09:13:17;;;;;;;15.57;8.57;;;12.80;1.00;;;;;;5038085;28;20057;-83
2023/04/17 09:15:44;;;;;;;15.45;8.85;;;12.80;1.00;;;;;;5038744;28;20041;-82
2023/04/17 09:18:29;;;;;;;13.07;8.32;;;12.90;1.00;;;;;;5055122;28;20471;-84
2023/04/17 09:20:58;;;;;;;13.13;8.60;;;13.00;1.00;;;;;;5038710;28;20101;-83
2023/04/17 09:23:28;;;;;;;14.32;8.05;;;13.10;1.00;;;;;;5054405;28;20095;-84
2023/04/17 09:26:09;;;;;;;12.45;7.65;;;13.10;1.00;;;;;;5038165;28;20052;-83
2023/04/17 09:28:38;;;;;;;11.35;8.10;;;13.20;1.00;;;;;;5038105;28;20045;-84
2023/04/17 09:31:05;;;;;;;13.75;8.43;;;13.30;1.00;;;;;;5039169;28;20526;-83
2023/04/17 09:33:31;;;;;;;14.65;7.70;;;13.40;1.00;;;;;;5038370;28;20413;-84
2023/04/17 09:36:22;;;;;;;14.50;9.07;;;13.70;1.00;;;;;;5038274;28;20059;-83
2023/04/17 09:38:48;;;;;;;12.93;6.93;;;13.60;1.00;;;;;;5038017;28;20040;-84
2023/04/17 09:41:29;;;;;;;13.98;7.07;;;13.70;1.00;;;;;;5038258;28;20408;-83
2023/04/17 09:44:00;;;;;;;14.77;7.75;;;13.00;1.00;;;;;;5038668;28;20044;-82
2023/04/17 09:46:40;;;;;;;12.63;7.93;;;13.80;99.90;;;;;;5054873;28;20045;-84
2023/04/17 09:49:28;;;;;;;11.48;7.18;;;13.80;99.90;;;;;;5038002;28;20051;-83
2023/04/17 09:51:55;;;;;;;11.57;6.65;;;13.80;99.90;;;;;;5048186;28;20091;-83
2023/04/17 09:54:22;;;;;;;12.50;7.13;;;13.80;99.90;;;;;;5038016;28;20052;-84
2023/04/17 09:56:54;;;;;;;12.38;6.28;;;14.90;99.90;;;;;;5055155;28;20409;-82
2023/04/17 09:59:22;;;;;;;13.48;6.45;;;14.00;99.90;;;;;;5055448;28;20175;-77
2023/04/17 10:01:52;;;;;;;10.40;6.18;;;14.40;99.90;;;;;;5037789;28;20036;-82
2023/04/17 10:04:18;;;;;;;13.00;7.00;;;14.00;99.90;;;;;;5054669;28;20045;-76
2023/04/17 10:06:44;;;;;;;12.55;6.80;;;15.30;99.90;;;;;;5038262;28;20468;-81
2023/04/17 10:09:11;;;;;;;10.90;6.13;;;14.20;99.90;;;;;;5055686;28;20072;-82
2023/04/17 10:11:40;;;;;;;10.90;6.60;;;14.20;99.90;;;;;;5055578;28;20155;-80
2023/04/17 10:14:26;;;;;;;15.82;7.15;;;16.70;94.60;;;;;;5038355;28;20037;-80
2023/04/17 10:16:53;;;;;;;11.05;6.50;;;16.30;1.00;;;;;;5038308;28;20076;-81
2023/04/17 10:19:27;;;;;;;9.30;6.13;;;15.10;99.90;;;;;;5039160;28;20041;-80
2023/04/17 10:22:14;;;;;;;11.18;5.97;;;15.10;1.00;;;;;;5054161;28;20115;-81
2023/04/17 10:24:51;;;;;;;14.02;6.30;;;14.90;99.90;;;;;;5054297;28;20041;-81
2023/04/17 10:27:26;;;;;;;14.38;6.72;;;15.00;1.00;;;;;;5037864;28;20076;-81
2023/04/17 10:30:02;;;;;;;10.98;5.65;;;15.60;99.90;;;;;;5055049;28;20045;-81
2023/04/17 10:32:29;;;;;;;11.95;6.75;;;16.20;2.20;;;;;;5054973;28;20047;-82
2023/04/17 10:35:22;;;;;;;10.13;5.68;;;17.30;1.00;;;;;;5055383;28;20071;-83
2023/04/17 10:37:50;;;;;;;9.68;5.90;;;15.20;1.00;;;;;;5031759;28;20041;-82
2023/04/17 10:40:26;;;;;;;9.60;6.20;;;15.30;1.00;;;;;;5054232;28;20496;-78
2023/04/17 10:43:22;;;;;;;12.73;6.40;;;15.40;99.90;;;;;;5054054;28;20049;-82
2023/04/17 10:46:09;;;;;;;8.23;5.25;;;15.50;90.00;;;;;;5032283;28;20412;-78
2023/04/17 10:48:45;;;;;;;7.07;5.13;;;15.60;1.00;;;;;;5053014;28;20040;-80
2023/04/17 10:51:20;;;;;;;10.23;5.55;;;15.90;69.10;;;;;;5053076;28;20059;-79
2023/04/17 10:54:05;;;;;;;8.55;4.75;;;15.90;99.90;;;;;;5036251;28;20044;-79
2023/04/17 10:56:47;;;;;;;7.38;4.70;;;16.10;99.90;;;;;;5053238;28;20055;-79
2023/04/17 10:59:17;;;;;;;9.35;5.13;;;16.30;99.90;;;;;;5036221;28;20090;-79
2023/04/17 11:01:46;;;;;;;12.18;5.10;;;16.30;99.90;;;;;;5053237;28;20416;-78
2023/04/17 11:04:18;;;;;;;11.52;5.72;;;16.50;99.90;;;;;;5036183;28;20390;-79
2023/04/17 11:06:44;;;;;;;7.03;4.75;;;16.80;99.90;;;;;;5036724;28;20041;-80
2023/04/17 11:09:10;;;;;;;7.03;4.88;;;16.00;99.90;;;;;;5053176;28;20045;-79
2023/04/17 11:11:41;;;;;;;13.50;5.90;;;16.40;99.90;;;;;;5036239;28;20049;-81
2023/04/17 11:14:18;;;;;;;8.45;5.57;;;16.00;99.90;;;;;;5037213;28;20078;-81
2023/04/17 11:16:46;;;;;;;9.18;5.60;;;16.50;99.90;;;;;;5036839;28;20547;-79
2023/04/17 11:19:31;;;;;;;7.45;5.10;;;16.50;99.90;;;;;;5053024;28;20041;-79
2023/04/17 11:21:57;;;;;;;11.93;6.00;;;16.50;99.90;;;;;;5053211;28;20080;-79
2023/04/17 11:24:30;;;;;;;11.05;5.95;;;17.10;99.90;;;;;;5036822;28;20599;-80
2023/04/17 11:27:02;;;;;;;7.47;4.95;;;16.80;99.90;;;;;;5053014;28;20041;-80
2023/04/17 11:29:28;;;;;;;11.85;5.90;;;17.00;99.90;;;;;;5053240;28;20045;-80
2023/04/17 11:31:55;;;;;;;9.68;5.60;;;16.60;99.90;;;;;;5053018;28;20037;-80
2023/04/17 11:34:21;;;;;;;9.07;5.30;;;17.70;99.90;;;;;;5036100;28;20044;-80
2023/04/17 11:36:51;;;;;;;7.72;5.43;;;16.10;99.90;;;;;;5036836;28;20083;-80
2023/04/17 11:39:18;;;;;;;8.02;5.97;;;16.40;99.90;;;;;;5036934;28;20029;-80
2023/04/17 11:41:45;;;;;;;13.63;4.97;;;16.10;99.90;;;;;;5053625;28;20548;-80
2023/04/17 11:44:16;;;;;;;9.93;5.25;;;16.10;99.90;;;;;;5036557;28;20048;-80
2023/04/17 11:46:41;;;;;;;;;;;16.50;99.90;;;;;;5053381;28;20041;-82
2023/04/17 11:49:07;;;;;;;8.20;4.93;;;16.50;99.90;;;;;;5052505;28;19917;-80
2023/04/17 11:51:33;;;;;;;8.63;5.10;;;16.80;99.90;;;;;;5036507;28;20045;-80
2023/04/17 11:53:59;;;;;;;9.60;5.15;;;17.10;99.90;;;;;;5053216;28;20048;-80
2023/04/17 11:56:28;;;;;;;11.00;5.93;;;18.20;99.90;;;;;;5053877;28;20041;-80
2023/04/17 11:58:56;;;;;;;8.98;5.60;;;17.50;99.90;;;;;;5052995;28;20420;-81
2023/04/17 12:01:25;;;;;;;7.43;4.43;;;17.00;99.90;;;;;;5036801;28;20108;-80
2023/04/17 12:03:52;;;;;;;9.35;6.05;;;17.90;99.90;;;;;;5053476;28;20132;-80
2023/04/17 12:06:18;;;;;;;10.90;6.13;;;16.90;99.90;;;;;;5035888;28;20044;-80
2023/04/17 12:08:52;;;;;;;12.50;5.88;;;16.90;99.90;;;;;;5053144;28;20043;-80
2023/04/17 12:11:23;;;;;;;10.25;5.85;;;16.80;99.90;;;;;;5052596;28;20076;-80
2023/04/17 12:13:53;;;;;;;9.98;5.35;;;17.60;99.90;;;;;;5052350;28;20127;-80
2023/04/17 12:16:20;;;;;;;13.02;5.95;;;16.80;99.90;;;;;;5035991;28;20037;-80
2023/04/17 12:18:46;;;;;;;10.88;5.68;;;16.80;99.90;;;;;;5036712;28;20041;-80
2023/04/17 12:21:12;;;;;;;9.73;5.53;;;16.60;99.90;;;;;;5036104;28;20131;-80
2023/04/17 12:23:39;;;;;;;10.48;5.93;;;16.50;99.90;;;;;;5053020;28;20045;-79
2023/04/17 12:26:04;;;;;;;11.45;6.95;;;16.40;99.90;;;;;;5052958;28;20412;-80
2023/04/17 12:28:30;;;;;;;8.40;5.85;;;15.80;99.90;;;;;;5052214;28;20041;-81
2023/04/17 12:30:56;;;;;;;12.50;6.93;;;16.20;99.90;;;;;;5052082;28;20483;-83
2023/04/17 12:33:21;;;;;;;8.93;6.15;;;16.00;99.90;;;;;;5035460;28;20029;-82
2023/04/17 12:35:47;;;;;;;15.48;6.78;;;16.00;99.90;;;;;;5051728;28;20048;-83
2023/04/17 12:38:13;;;;;;;10.18;5.78;;;15.90;99.90;;;;;;5035132;28;20037;-83
2023/04/17 12:40:41;;;;;;;11.35;5.82;;;16.00;99.90;;;;;;5051601;28;20052;-81
2023/04/17 12:43:11;;;;;;;11.30;6.03;;;16.00;99.90;;;;;;5051940;28;20481;-82
2023/04/17 12:45:37;;;;;;;11.00;5.63;;;16.30;99.90;;;;;;5051906;28;20084;-81